• Join FlightAware (Why Join?)
  • Login
  • US Flag 
11:27AM EDT


 

Airport Tracker/Info


-or-


 

Live Flight TrackerFlight Track Log ✈ UAL3740 ✈ 20-Apr-2013 ✈ KPVD - KIAD

Flight Track Log - Related Links

Times and Time Zones

All times are in EDT time to prevent confusion due to time zone crossing. See the UAL3740 flight status page for this flight to view local times or setup timezone preferences in your user account.

Time Position Orientation Groundspeed Altitude Reporting Facility
EDT Latitude Longitude Course Direction KTS MPH feet Rate Location/Type
10:04AM 41.7006 -71.5058 261° West 183 211 2,800  Level Boston Center
10:06AM 41.7136 -71.5836 283° West 193 222 5,600 2,160 Climbing Boston Center
10:07AM 41.7808 -71.6494 324° Northwest 204 235 7,900 2,280 Climbing Boston Center
10:08AM 41.8417 -71.7183 320° Northwest 268 308 10,200 2,160 Climbing Boston Center
10:09AM 41.9131 -71.7956 321° Northwest 312 359 12,300 1,860 Climbing Boston Center
10:10AM 41.9697 -71.8872 310° West 328 377 14,000 2,100 Climbing Boston Center
10:11AM 41.9931 -72.0017 285° West 315 362 16,500 1,980 Climbing Boston Center
10:12AM 42.0164 -72.1047 287° West 315 362 18,000 1,740 Climbing Boston Center
10:13AM 42.0481 -72.2331 288° West 321 369 20,000 1,800 Climbing Boston Center
10:14AM 42.0753 -72.3506 287° West 327 376 21,600 1,560 Climbing Boston Center
10:15AM 42.0606 -72.4625 260° West 310 357 23,200 1,500 Climbing Boston Center
10:16AM 42.0419 -72.5742 257° West 310 357 24,600 1,500 Climbing Boston Center
10:17AM 42.0250 -72.6806 258° West 310 357 26,200 1,260 Climbing Boston Center
10:18AM 42.0039 -72.7922 256° West 305 351 27,200 900 Climbing Boston Center
10:19AM 41.9847 -72.9064 257° West 311 358 28,000 360 Climbing Boston Center
10:20AM 41.9633 -73.0208 256° West 323 372 28,000  Level Boston Center
10:21AM 41.9231 -73.1319 244° Southwest 342 394 28,000  Level Boston Center
10:22AM 41.8661 -73.2261 231° Southwest 337 388 28,000  Level Boston Center
10:23AM 41.8819 -73.3603 279° West 322 371 28,000  Level Boston Center
10:24AM 41.9244 -73.4975 293° West 355 409 28,000  Level Boston Center
10:25AM 41.8800 -73.5806 234° Southwest 281 323 28,000  Level Boston Center
10:26AM 41.8064 -73.6322 208° Southwest 269 310 28,000  Level Boston Center
10:27AM 41.7350 -73.6808 207° Southwest 282 325 28,000  Level Boston Center
10:29AM 41.5664 -73.7989 208° Southwest 286 329 28,000  Level New York Center
10:30AM 41.4922 -73.8508 208° Southwest 291 335 28,000  Level New York Center
10:31AM 41.4200 -73.9031 208° Southwest 291 335 28,000  Level New York Center
10:32AM 41.3456 -73.9547 208° Southwest 291 335 28,000  Level New York Center
10:33AM 41.2756 -74.0067 209° Southwest 297 342 28,000  Level New York Center
10:34AM 41.2033 -74.0556 207° Southwest 297 342 28,000  Level New York Center
10:35AM 41.1353 -74.1128 212° Southwest 297 342 28,000  Level New York Center
10:36AM 41.0889 -74.2042 236° Southwest 288 331 28,000  Level New York Center
10:37AM 41.0444 -74.2981 238° Southwest 298 343 28,000 -60 Level New York Center
10:38AM 41.0042 -74.3839 238° Southwest 298 343 27,900  Descending New York Center
10:39AM 40.9622 -74.4669 236° Southwest 291 335 28,000  Climbing New York Center
10:40AM 40.9239 -74.5528 239° Southwest 280 322 28,000  Level New York Center
10:41AM 40.8900 -74.6386 242° Southwest 275 316 28,000  Level New York Center
10:42AM 40.8619 -74.7331 249° West 275 316 28,000 -300 Level New York Center
10:43AM 40.8292 -74.8325 246° West 281 323 27,400 -840 Descending New York Center
10:44AM 40.7964 -74.9403 248° West 303 349 26,400 -1,080 Descending New York Center
10:45AM 40.7633 -75.0478 248° West 316 364 25,400 -1,020 Descending New York Center
10:46AM 40.7242 -75.1522 244° Southwest 327 376 24,400 -720 Descending New York Center
10:47AM 40.6747 -75.2447 235° Southwest 315 362 24,000 -240 Descending New York Center
10:48AM 40.6253 -75.3372 235° Southwest 310 357 24,000 -120 Level New York Center
10:49AM 40.5781 -75.4297 236° Southwest 310 357 23,800 -600 Descending New York Center
10:50AM 40.5286 -75.5219 235° Southwest 315 362 22,800 -960 Descending New York Center
10:51AM 40.4786 -75.6194 236° Southwest 315 362 22,000 -780 Descending New York Center
10:52AM 40.4289 -75.7114 235° Southwest 315 362 21,300 -900 Descending New York Center
10:53AM 40.3833 -75.8036 237° Southwest 315 362 20,300 -660 Descending New York Center
10:54AM 40.3317 -75.8953 234° Southwest 315 362 20,000 -180 Descending New York Center
10:55AM 40.2775 -75.9892 233° Southwest 321 369 20,000  Level New York Center
10:56AM 40.2294 -76.0833 236° Southwest 321 369 20,000  Level New York Center
10:57AM 40.1794 -76.1747 234° Southwest 321 369 20,000 -600 Level New York Center
10:58AM 40.1289 -76.2739 236° Southwest 321 369 18,900 -1,020 Descending New York Center
10:59AM 40.0850 -76.3681 239° Southwest 311 358 18,000 -960 Descending New York Center
11:01AM 40.0000 -76.5333 236° Southwest 306 352 16,300 -1,020 Descending Potomac TRACON
11:02AM 39.9667 -76.6333 247° West 307 353 15,200 -660 Descending Potomac TRACON
11:03AM 39.9167 -76.7333 237° Southwest 311 358 15,000 -60 Descending Potomac TRACON
11:04AM 39.8833 -76.8167 242° Southwest 299 344 15,100  Climbing Potomac TRACON
11:05AM 39.8333 -76.9167 237° Southwest 296 341 15,100 -120 Level Potomac TRACON
11:06AM 39.7833 -77.0000 232° Southwest 297 342 14,900 -720 Descending Potomac TRACON
11:07AM 39.7500 -77.0833 243° Southwest 293 337 13,800 -1,200 Descending Potomac TRACON
11:08AM 39.7000 -77.1667 232° Southwest 288 331 12,500 -1,440 Descending Potomac TRACON
11:09AM 39.6667 -77.2500 243° Southwest 256 295 11,000 -1,260 Descending Potomac TRACON
11:10AM 39.6333 -77.3333 243° Southwest 244 281 10,000 -1,020 Descending Potomac TRACON
11:11AM 39.5667 -77.3500 191° South 280 322 9,000 -1,080 Descending Potomac TRACON
11:12AM 39.4833 -77.3500 180° South 279 321 7,900 -960 Descending Potomac TRACON
11:13AM 39.4167 -77.3667 191° South 285 328 7,200 -900 Descending Potomac TRACON
11:14AM 39.3333 -77.3667 180° South 283 326 6,200 -1,140 Descending Potomac TRACON
11:15AM 39.2667 -77.3667 180° South 268 308 5,000 -1,140 Descending Potomac TRACON
11:16AM 39.1833 -77.3667 180° South 265 305 4,000 -540 Descending Potomac TRACON
11:17AM 39.1167 -77.3500 169° South 261 300 4,000  Level Potomac TRACON
11:18AM 39.0333 -77.3667 189° South 267 307 4,000 -480 Level Potomac TRACON
11:19AM 38.9667 -77.3667 180° South 265 305 3,100 -960 Descending Potomac TRACON
11:20AM 38.9000 -77.3500 169° South 247 284 2,100 -540 Descending Potomac TRACON
11:21AM 38.8333 -77.3667 191° South 237 273 2,100 -60 Level Potomac TRACON
11:22AM 38.8500 -77.4167 293° West 142 163 2,000 -360 Descending Potomac TRACON
11:23AM 38.8833 -77.4333 339° North 133 153 1,400 -720 Descending Potomac TRACON
11:24AM 38.9167 -77.4333 360° North 139 160 600 -840 Descending Potomac TRACON